createdAt,value
2017-06-11T00:00:14.912Z,69.96
2017-06-11T00:00:42.968Z,69.87
2017-06-11T00:01:11.360Z,69.87
2017-06-11T00:01:39.533Z,69.39
2017-06-11T00:02:07.812Z,69.2
2017-06-11T00:02:35.936Z,69.58
2017-06-11T00:03:04.223Z,69.48
2017-06-11T00:03:32.513Z,69.87
2017-06-11T00:04:00.639Z,69.96
2017-06-11T00:04:28.864Z,69.96
2017-06-11T00:04:57.182Z,69.77
2017-06-11T00:05:25.530Z,69.87
2017-06-11T00:05:53.667Z,69.58
2017-06-11T00:06:21.841Z,69.77
2017-06-11T00:06:50.069Z,69.68
2017-06-11T00:07:18.255Z,69.68
2017-06-11T00:07:46.484Z,69.87
2017-06-11T00:08:14.662Z,69.77
2017-06-11T00:08:42.739Z,69.87
2017-06-11T00:09:10.882Z,69.58
2017-06-11T00:09:38.920Z,69.1
2017-06-11T00:10:07.033Z,69.48
2017-06-11T00:10:35.297Z,68.91
2017-06-11T00:11:03.529Z,69.29
2017-06-11T00:11:31.915Z,68.91
2017-06-11T00:11:59.961Z,68.91
2017-06-11T00:12:28.165Z,69.29
2017-06-11T00:12:56.145Z,69.2
2017-06-11T00:13:24.392Z,69.01
2017-06-11T00:13:52.483Z,69.01
2017-06-11T00:14:20.532Z,69.01
2017-06-11T00:14:48.728Z,69.01
2017-06-11T00:15:16.984Z,69.2
2017-06-11T00:15:45.165Z,69.01
2017-06-11T00:16:13.408Z,68.91
2017-06-11T00:16:41.855Z,68.44
2017-06-11T00:17:10.111Z,68.91
2017-06-11T00:17:38.338Z,68.63
2017-06-11T00:18:06.566Z,68.91
2017-06-11T00:18:34.742Z,69.01
2017-06-11T00:19:02.839Z,69.1
2017-06-11T00:19:30.999Z,69.01
2017-06-11T00:19:59.274Z,68.82
2017-06-11T00:20:27.574Z,69.01
2017-06-11T00:20:55.796Z,68.85
2017-06-11T00:21:24.087Z,69.01
2017-06-11T00:21:52.172Z,69.29
2017-06-11T00:22:20.339Z,69.2
2017-06-11T00:22:48.646Z,69.01
2017-06-11T00:23:16.859Z,69.39
2017-06-11T00:23:44.987Z,69.1
2017-06-11T00:24:13.169Z,69.29
2017-06-11T00:24:41.240Z,69.29
2017-06-11T00:25:09.347Z,69.29
2017-06-11T00:25:37.469Z,69.48
2017-06-11T00:26:05.719Z,70.06
2017-06-11T00:26:33.924Z,69.87
2017-06-11T00:27:01.990Z,69.96
2017-06-11T00:27:30.133Z,69.87
2017-06-11T00:27:58.359Z,69.58
2017-06-11T00:28:26.638Z,69.68
2017-06-11T00:28:54.926Z,69.96
2017-06-11T00:29:23.082Z,70.15
2017-06-11T00:29:51.229Z,70.06
2017-06-11T00:30:19.451Z,69.77
2017-06-11T00:30:47.614Z,69.96
2017-06-11T00:31:15.834Z,70.15
2017-06-11T00:31:44.006Z,70.25
2017-06-11T00:32:12.256Z,70.15
2017-06-11T00:32:40.359Z,70.15
2017-06-11T00:33:08.631Z,69.87
2017-06-11T00:33:36.898Z,70.25
2017-06-11T00:34:04.976Z,70.25
2017-06-11T00:34:33.168Z,70.53
2017-06-11T00:35:01.350Z,70.44
2017-06-11T00:35:29.586Z,71.11
2017-06-11T00:35:57.858Z,70.72
2017-06-11T00:36:25.870Z,70.5
2017-06-11T00:36:54.118Z,70.82
2017-06-11T00:37:22.294Z,70.78
2017-06-11T00:37:50.480Z,70.97
2017-06-11T00:38:18.677Z,71.64
2017-06-11T00:38:46.856Z,71.26
2017-06-11T00:39:15.058Z,72.02
2017-06-11T00:39:43.168Z,72.12
2017-06-11T00:40:11.401Z,72.12
2017-06-11T00:40:39.559Z,72.31
2017-06-11T00:41:07.686Z,72.88
2017-06-11T00:41:35.922Z,72.6
2017-06-11T00:42:04.212Z,72.88
2017-06-11T00:42:32.514Z,72.88
2017-06-11T00:43:00.642Z,72.69
2017-06-11T00:43:28.893Z,73.26
2017-06-11T00:43:56.946Z,73.36
2017-06-11T00:44:25.094Z,73.74
2017-06-11T00:44:53.381Z,74.02
2017-06-11T00:45:21.649Z,73.83
2017-06-11T00:45:49.921Z,73.93
2017-06-11T00:46:18.165Z,73.74
2017-06-11T00:46:46.557Z,73.83
2017-06-11T00:47:14.683Z,74.4
2017-06-11T00:47:42.811Z,74.6
2017-06-11T00:48:11.061Z,74.31
2017-06-11T00:48:39.141Z,74.69
2017-06-11T00:49:07.396Z,74.79
2017-06-11T00:49:35.288Z,74.5
2017-06-11T00:50:03.458Z,74.69
2017-06-11T00:50:31.982Z,74.98
2017-06-11T00:51:00.130Z,74.75
2017-06-11T00:51:28.104Z,75.26
2017-06-11T00:51:56.412Z,75.32
2017-06-11T00:52:24.731Z,75.79
2017-06-11T00:52:52.695Z,75.32
2017-06-11T00:53:20.840Z,75.89
2017-06-11T00:53:48.991Z,75.6
2017-06-11T00:54:17.262Z,75.99
2017-06-11T00:54:45.379Z,76.08
2017-06-11T00:55:13.647Z,75.99
2017-06-11T00:55:41.801Z,76.08
2017-06-11T00:56:09.992Z,76.18
2017-06-11T00:56:38.165Z,75.99
2017-06-11T00:57:06.425Z,76.08
2017-06-11T00:57:34.559Z,76.5
2017-06-11T00:58:02.839Z,76.21
2017-06-11T00:58:31.060Z,76.03
2017-06-11T00:58:59.235Z,76.03
2017-06-11T00:59:27.526Z,75.45
2017-06-11T00:59:55.695Z,75.64
2017-06-11T01:00:23.955Z,75.26
2017-06-11T01:00:52.160Z,75.45
2017-06-11T01:01:20.444Z,74.98
2017-06-11T01:01:48.624Z,75.07
2017-06-11T01:02:16.915Z,74.79
2017-06-11T01:02:45.001Z,74.98
2017-06-11T01:03:13.244Z,75.26
2017-06-11T01:03:41.301Z,75.45
2017-06-11T01:04:09.568Z,75.36
2017-06-11T01:04:37.716Z,75.55
2017-06-11T01:05:05.926Z,75.64
2017-06-11T01:05:34.243Z,75.26
2017-06-11T01:06:02.468Z,75.64
2017-06-11T01:06:30.632Z,75.74
2017-06-11T01:06:58.893Z,76.31
2017-06-11T01:07:27.079Z,75.84
2017-06-11T01:07:55.229Z,75.99
2017-06-11T01:08:23.466Z,76.18
2017-06-11T01:08:51.627Z,76.18
2017-06-11T01:09:19.721Z,76.27
2017-06-11T01:09:47.927Z,76.31
2017-06-11T01:10:16.077Z,76.18
2017-06-11T01:10:44.213Z,76.18
2017-06-11T01:11:12.356Z,76.46
2017-06-11T01:11:40.497Z,76.37
2017-06-11T01:12:08.733Z,76.18
2017-06-11T01:12:36.980Z,76.37
2017-06-11T01:13:05.156Z,76.46
2017-06-11T01:13:33.333Z,76.18
2017-06-11T01:14:01.610Z,76.56
2017-06-11T01:14:29.856Z,76.56
2017-06-11T01:14:58.084Z,76.56
2017-06-11T01:15:26.250Z,77.03
2017-06-11T01:15:54.499Z,76.65
2017-06-11T01:16:22.658Z,76.65
2017-06-11T01:16:50.747Z,76.37
2017-06-11T01:17:18.886Z,76.65
2017-06-11T01:17:47.151Z,76.84
2017-06-11T01:18:15.339Z,76.65
2017-06-11T01:18:43.415Z,77.13
2017-06-11T01:19:11.701Z,77.32
2017-06-11T01:19:39.867Z,77.22
2017-06-11T01:20:08.100Z,77.22
2017-06-11T01:20:36.269Z,77.61
2017-06-11T01:21:04.545Z,77.42
2017-06-11T01:21:32.682Z,77.22
2017-06-11T01:22:00.752Z,77.98
2017-06-11T01:22:28.859Z,77.98
2017-06-11T01:22:56.910Z,77.89
2017-06-11T01:23:25.191Z,77.89
2017-06-11T01:23:53.333Z,78.17
2017-06-11T01:24:21.588Z,77.89
2017-06-11T01:24:49.751Z,78.27
2017-06-11T01:25:17.962Z,78.27
2017-06-11T01:25:46.117Z,78.27
2017-06-11T01:26:14.381Z,78.17
2017-06-11T01:26:42.644Z,77.98
2017-06-11T01:27:10.970Z,78.27
2017-06-11T01:27:39.076Z,78.23
2017-06-11T01:28:07.301Z,78.42
2017-06-11T01:28:35.474Z,78.56
2017-06-11T01:29:03.686Z,78.71
2017-06-11T01:29:31.879Z,78.61
2017-06-11T01:29:59.927Z,78.52
2017-06-11T01:30:28.211Z,78.61
2017-06-11T01:30:56.463Z,78.71
2017-06-11T01:31:24.697Z,78.8
2017-06-11T01:31:52.690Z,78.71
2017-06-11T01:32:20.908Z,78.52
2017-06-11T01:32:49.155Z,78.42
2017-06-11T01:33:17.304Z,78.9
2017-06-11T01:33:45.446Z,78.99
2017-06-11T01:34:13.641Z,78.8
2017-06-11T01:34:41.741Z,78.99
2017-06-11T01:35:09.812Z,78.9
2017-06-11T01:35:38.051Z,78.99
2017-06-11T01:36:06.157Z,79.19
2017-06-11T01:36:34.202Z,78.99
2017-06-11T01:37:02.291Z,78.99
2017-06-11T01:37:30.525Z,78.99
2017-06-11T01:37:58.566Z,79.09
2017-06-11T01:38:26.772Z,78.9
2017-06-11T01:38:54.884Z,79.19
2017-06-11T01:39:23.020Z,79.09
2017-06-11T01:39:51.196Z,78.9
2017-06-11T01:40:19.407Z,78.9
2017-06-11T01:40:47.367Z,79.38
2017-06-11T01:41:15.553Z,79.38
2017-06-11T01:41:43.842Z,79.47
2017-06-11T01:42:12.021Z,79.28
2017-06-11T01:42:40.292Z,79.94
2017-06-11T01:43:08.620Z,79.85
2017-06-11T01:43:36.764Z,80.13
2017-06-11T01:44:04.918Z,79.75
2017-06-11T01:44:33.054Z,79.66
2017-06-11T01:45:01.116Z,79.47
2017-06-11T01:45:29.345Z,79.57
2017-06-11T01:45:57.531Z,80.33
2017-06-11T01:46:25.573Z,80.13
2017-06-11T01:46:53.610Z,80.13
2017-06-11T01:47:21.771Z,80.42
2017-06-11T01:47:49.966Z,80.33
2017-06-11T01:48:17.988Z,80.71
2017-06-11T01:48:46.246Z,80.9
2017-06-11T01:49:14.319Z,80.8
2017-06-11T01:49:42.479Z,80.9
2017-06-11T01:50:10.627Z,80.8
2017-06-11T01:50:38.794Z,81.28
2017-06-11T01:51:06.951Z,80.99
2017-06-11T01:51:35.084Z,81.09
2017-06-11T01:52:03.363Z,80.99
2017-06-11T01:52:31.705Z,81.09
2017-06-11T01:52:59.782Z,81.09
2017-06-11T01:53:28.032Z,80.8
2017-06-11T01:53:56.261Z,80.8
2017-06-11T01:54:24.420Z,80.9
2017-06-11T01:54:52.614Z,80.99
2017-06-11T01:55:20.879Z,81.28
2017-06-11T01:55:49.125Z,80.99
2017-06-11T01:56:17.246Z,80.9
2017-06-11T01:56:45.327Z,80.99
2017-06-11T01:57:13.564Z,81.09
2017-06-11T01:57:41.864Z,80.99
2017-06-11T01:58:10.046Z,80.99
2017-06-11T01:58:38.258Z,81.09
2017-06-11T01:59:06.405Z,81.18
2017-06-11T01:59:34.556Z,80.9
2017-06-11T02:00:02.855Z,80.99
2017-06-11T02:00:31.026Z,81.09
2017-06-11T02:00:59.109Z,81.37
2017-06-11T02:01:27.405Z,81.28
2017-06-11T02:01:55.510Z,81.09
2017-06-11T02:02:23.561Z,81.09
2017-06-11T02:02:51.814Z,81.18
2017-06-11T02:03:20.058Z,81.76
2017-06-11T02:03:48.209Z,81.66
2017-06-11T02:04:16.441Z,81.28
2017-06-11T02:04:44.706Z,82
2017-06-11T02:05:12.959Z,82.04
2017-06-11T02:05:41.101Z,81.71
2017-06-11T02:06:09.242Z,82.28
2017-06-11T02:06:37.486Z,82.09
2017-06-11T02:07:05.615Z,82
2017-06-11T02:07:33.733Z,82.48
2017-06-11T02:08:02.151Z,82.28
2017-06-11T02:08:30.281Z,82.09
2017-06-11T02:08:58.415Z,82
2017-06-11T02:09:26.655Z,82.28
2017-06-11T02:09:54.801Z,82.28
2017-06-11T02:10:22.981Z,82.95
2017-06-11T02:10:51.209Z,83.04
2017-06-11T02:11:19.351Z,82.86
2017-06-11T02:11:47.286Z,82.86
2017-06-11T02:12:15.537Z,83.04
2017-06-11T02:12:43.506Z,82.76
2017-06-11T02:13:11.901Z,82.95
2017-06-11T02:13:40.080Z,82.8
2017-06-11T02:14:08.157Z,82.95
2017-06-11T02:14:36.399Z,82.7
2017-06-11T02:15:04.465Z,82.8
2017-06-11T02:15:32.739Z,82.8
2017-06-11T02:16:00.710Z,82.99
2017-06-11T02:16:28.865Z,83.09
2017-06-11T02:16:56.917Z,82.95
2017-06-11T02:17:25.088Z,82.99
2017-06-11T02:17:53.498Z,82.7
2017-06-11T02:18:21.745Z,83.09
2017-06-11T02:18:49.986Z,82.99
2017-06-11T02:19:18.133Z,83.28
2017-06-11T02:19:46.502Z,82.9
2017-06-11T02:20:14.739Z,82.42
2017-06-11T02:20:42.967Z,82.04
2017-06-11T02:21:11.222Z,82.42
2017-06-11T02:21:39.480Z,82.23
2017-06-11T02:22:07.617Z,82.51
2017-06-11T02:22:35.773Z,82.04
2017-06-11T02:23:04.210Z,82.23
2017-06-11T02:23:32.422Z,82.23
2017-06-11T02:24:00.668Z,82.04
2017-06-11T02:24:28.993Z,81.95
2017-06-11T02:24:57.123Z,82.04
2017-06-11T02:25:25.238Z,82.23
2017-06-11T02:25:53.409Z,81.95
2017-06-11T02:26:22.361Z,82.14
2017-06-11T02:26:50.474Z,82.42
2017-06-11T02:27:18.671Z,82.32
2017-06-11T02:27:46.922Z,81.95
2017-06-11T02:28:15.200Z,81.95
2017-06-11T02:28:43.366Z,82.04
2017-06-11T02:29:11.474Z,82.04
2017-06-11T02:29:39.669Z,82.23
2017-06-11T02:30:07.761Z,82.23
2017-06-11T02:30:35.971Z,82.23
2017-06-11T02:31:04.140Z,82.51
2017-06-11T02:31:32.160Z,82.42
2017-06-11T02:32:00.452Z,82.42
2017-06-11T02:32:28.572Z,81.85
2017-06-11T02:32:56.768Z,82.23
2017-06-11T02:33:24.902Z,82.7
2017-06-11T02:33:53.123Z,82.14
2017-06-11T02:34:21.350Z,81.76
2017-06-11T02:34:49.425Z,81.28
2017-06-11T02:35:17.536Z,81.28
2017-06-11T02:35:45.747Z,81.56
2017-06-11T02:36:13.877Z,81.66
2017-06-11T02:36:42.036Z,81.47
2017-06-11T02:37:10.348Z,81.56
2017-06-11T02:37:38.613Z,81.37
2017-06-11T02:38:06.836Z,81.76
2017-06-11T02:38:35.194Z,81.47
2017-06-11T02:39:03.457Z,80.99
2017-06-11T02:39:31.530Z,81.09
2017-06-11T02:39:59.712Z,80.99
2017-06-11T02:40:28.512Z,81.09
2017-06-11T02:40:56.761Z,80.9
2017-06-11T02:41:24.893Z,81.18
2017-06-11T02:41:53.037Z,81.09
2017-06-11T02:42:21.087Z,81.09
2017-06-11T02:42:49.247Z,81.09
2017-06-11T02:43:17.600Z,80.9
2017-06-11T02:43:45.870Z,81.18
2017-06-11T02:44:14.117Z,80.99
2017-06-11T02:44:42.351Z,81.09
2017-06-11T02:45:10.628Z,81.18
2017-06-11T02:45:38.749Z,81.18
2017-06-11T02:46:06.973Z,81.09
2017-06-11T02:46:35.266Z,80.99
2017-06-11T02:47:03.331Z,81.09
2017-06-11T02:47:31.583Z,80.71
2017-06-11T02:47:59.856Z,80.8
2017-06-11T02:48:28.093Z,80.99
2017-06-11T02:48:56.187Z,80.99
2017-06-11T02:49:24.444Z,80.61
2017-06-11T02:49:52.702Z,80.61
2017-06-11T02:50:20.671Z,80.8
2017-06-11T02:50:48.804Z,80.71
2017-06-11T02:51:16.934Z,80.9
2017-06-11T02:51:45.156Z,80.33
2017-06-11T02:52:13.321Z,80.61
2017-06-11T02:52:41.499Z,80.52
2017-06-11T02:53:09.606Z,80.42
2017-06-11T02:53:38.069Z,80.42
2017-06-11T02:54:06.168Z,80.71
2017-06-11T02:54:34.495Z,80.61
2017-06-11T02:55:02.783Z,80.42
2017-06-11T02:55:31.032Z,80.71
2017-06-11T02:55:59.206Z,80.8
2017-06-11T02:56:27.469Z,80.8
2017-06-11T02:56:55.707Z,80.52
2017-06-11T02:57:23.823Z,80.99
2017-06-11T02:57:52.079Z,81.09
2017-06-11T02:58:20.295Z,80.9
2017-06-11T02:58:48.541Z,80.99
2017-06-11T02:59:16.666Z,80.99
2017-06-11T02:59:44.907Z,80.99
2017-06-11T03:00:13.078Z,80.99
2017-06-11T03:00:41.355Z,80.99
2017-06-11T03:01:09.584Z,80.9
2017-06-11T03:01:37.843Z,81.09
2017-06-11T03:02:06.055Z,81.18
2017-06-11T03:02:34.316Z,80.99
2017-06-11T03:03:02.415Z,81.09
2017-06-11T03:03:30.657Z,80.99
2017-06-11T03:03:59.134Z,81.18
2017-06-11T03:04:27.434Z,81.56
2017-06-11T03:04:55.670Z,81.76
2017-06-11T03:05:23.909Z,81.47
2017-06-11T03:05:52.167Z,81.66
2017-06-11T03:06:20.333Z,81.47
2017-06-11T03:06:48.630Z,81.47
2017-06-11T03:07:16.678Z,81.28
2017-06-11T03:07:44.745Z,81.76
2017-06-11T03:08:12.868Z,81.66
2017-06-11T03:08:41.216Z,81.66
2017-06-11T03:09:09.440Z,82.14
2017-06-11T03:09:37.438Z,82.23
2017-06-11T03:10:05.652Z,82.32
2017-06-11T03:10:33.878Z,82.04
2017-06-11T03:11:01.991Z,82.9
2017-06-11T03:11:30.284Z,82.14
2017-06-11T03:11:58.443Z,82.99
2017-06-11T03:12:26.687Z,83.09
2017-06-11T03:12:54.964Z,82.7
2017-06-11T03:13:23.056Z,83.09
2017-06-11T03:13:51.469Z,83.14
2017-06-11T03:14:19.633Z,83.28
2017-06-11T03:14:47.924Z,82.95
2017-06-11T03:15:16.176Z,83.71
2017-06-11T03:15:44.396Z,83.52
2017-06-11T03:16:12.667Z,83.33
2017-06-11T03:16:40.844Z,83.04
2017-06-11T03:17:09.001Z,83.14
2017-06-11T03:17:37.248Z,83.42
2017-06-11T03:18:05.195Z,83.81
2017-06-11T03:18:33.467Z,83.81
2017-06-11T03:19:01.722Z,83.9
2017-06-11T03:19:29.894Z,83.71
2017-06-11T03:19:58.037Z,83.71
2017-06-11T03:20:26.276Z,83.9
2017-06-11T03:20:54.456Z,84.28
2017-06-11T03:21:22.698Z,84.28
2017-06-11T03:21:50.968Z,84.38
2017-06-11T03:22:19.237Z,84.76
2017-06-11T03:22:47.382Z,84.95
2017-06-11T03:23:15.602Z,84.76
2017-06-11T03:23:43.854Z,84.85
2017-06-11T03:24:12.009Z,84.95
2017-06-11T03:24:40.032Z,84.85
2017-06-11T03:25:08.119Z,84.76
2017-06-11T03:25:36.376Z,84.76
2017-06-11T03:26:04.571Z,85.33
2017-06-11T03:26:32.825Z,85.28
2017-06-11T03:27:00.987Z,85.28
2017-06-11T03:27:29.036Z,85.19
2017-06-11T03:27:57.292Z,85.47
2017-06-11T03:28:25.477Z,85.71
2017-06-11T03:28:53.872Z,85.9
2017-06-11T03:29:21.937Z,85.95
2017-06-11T03:29:50.105Z,86.18
2017-06-11T03:30:18.289Z,86.14
2017-06-11T03:30:46.460Z,86.24
2017-06-11T03:31:14.686Z,85.95
2017-06-11T03:31:42.904Z,85.86
2017-06-11T03:32:11.184Z,85.9
2017-06-11T03:32:39.344Z,86.05
2017-06-11T03:33:07.406Z,85.57
2017-06-11T03:33:35.650Z,86.43
2017-06-11T03:34:04.028Z,85.86
2017-06-11T03:34:32.225Z,85.86
2017-06-11T03:35:00.476Z,85.95
2017-06-11T03:35:28.691Z,86.05
2017-06-11T03:35:56.930Z,86.14
2017-06-11T03:36:25.098Z,86.33
2017-06-11T03:36:53.326Z,86.43
2017-06-11T03:37:21.433Z,86.24
2017-06-11T03:37:49.721Z,86.61
2017-06-11T03:38:17.963Z,86.8
2017-06-11T03:38:46.203Z,86.71
2017-06-11T03:39:14.643Z,86.52
2017-06-11T03:39:42.898Z,86.71
2017-06-11T03:40:11.139Z,87.09
2017-06-11T03:40:39.284Z,87.09
2017-06-11T03:41:07.406Z,87.47
2017-06-11T03:41:35.583Z,87.38
2017-06-11T03:42:03.859Z,87.76
2017-06-11T03:42:32.463Z,87.38
2017-06-11T03:43:00.593Z,87.47
2017-06-11T03:43:28.721Z,87.47
2017-06-11T03:43:56.782Z,87.38
2017-06-11T03:44:25.211Z,87.38
2017-06-11T03:44:53.341Z,87.38
2017-06-11T03:45:21.554Z,87.38
2017-06-11T03:45:49.800Z,87.28
2017-06-11T03:46:18.072Z,87.28
2017-06-11T03:46:46.313Z,87.28
2017-06-11T03:47:14.425Z,87.66
2017-06-11T03:47:42.558Z,87.47
2017-06-11T03:48:10.762Z,87.76
2017-06-11T03:48:38.865Z,87.85
2017-06-11T03:49:07.155Z,87.95
2017-06-11T03:49:35.223Z,87.38
2017-06-11T03:50:03.483Z,87.76
2017-06-11T03:50:31.524Z,87.95
2017-06-11T03:50:59.722Z,87.95
2017-06-11T03:51:27.864Z,88.13
2017-06-11T03:51:56.090Z,87.85
2017-06-11T03:52:24.227Z,87.85
2017-06-11T03:52:52.551Z,88.13
2017-06-11T03:53:20.625Z,87.85
2017-06-11T03:53:48.862Z,88.13
2017-06-11T03:54:17.028Z,88.04
2017-06-11T03:54:45.256Z,88.61
2017-06-11T03:55:13.502Z,88.23
2017-06-11T03:55:41.674Z,88.33
2017-06-11T03:56:09.912Z,88.33
2017-06-11T03:56:38.156Z,88.13
2017-06-11T03:57:06.259Z,88.04
2017-06-11T03:57:34.408Z,88.42
2017-06-11T03:58:02.563Z,88.23
2017-06-11T03:58:30.685Z,88.61
2017-06-11T03:58:58.788Z,88.52
2017-06-11T03:59:27.132Z,89.09
2017-06-11T03:59:55.267Z,88.61
2017-06-11T04:00:23.438Z,89.18
2017-06-11T04:00:51.597Z,88.9
2017-06-11T04:01:19.812Z,89.37
2017-06-11T04:01:47.941Z,89.28
2017-06-11T04:02:16.099Z,89.37
2017-06-11T04:02:44.159Z,89.28
2017-06-11T04:03:12.485Z,89.18
2017-06-11T04:03:40.593Z,89.28
2017-06-11T04:04:08.921Z,89.47
2017-06-11T04:04:37.319Z,89.28
2017-06-11T04:05:05.503Z,89.18
2017-06-11T04:05:33.716Z,89.18
2017-06-11T04:06:01.843Z,89.28
2017-06-11T04:06:30.101Z,89.37
2017-06-11T04:06:58.246Z,89.47
2017-06-11T04:07:26.324Z,89.37
2017-06-11T04:07:54.484Z,89.94
2017-06-11T04:08:22.549Z,89.66
2017-06-11T04:08:50.640Z,89.85
2017-06-11T04:09:18.922Z,89.75
2017-06-11T04:09:46.982Z,89.75
2017-06-11T04:10:15.203Z,89.47
2017-06-11T04:10:43.581Z,90.04
2017-06-11T04:11:11.848Z,89.85
2017-06-11T04:11:40.074Z,89.75
2017-06-11T04:12:08.133Z,89.94
2017-06-11T04:12:36.407Z,89.85
2017-06-11T04:13:04.504Z,90.04
2017-06-11T04:13:32.801Z,89.85
2017-06-11T04:14:00.939Z,89.94
2017-06-11T04:14:29.229Z,89.94
2017-06-11T04:14:57.732Z,90.14
2017-06-11T04:15:25.969Z,90.42
2017-06-11T04:15:54.208Z,90.33
2017-06-11T04:16:22.462Z,90.33
2017-06-11T04:16:50.627Z,90.42
2017-06-11T04:17:18.893Z,90.52
2017-06-11T04:17:47.054Z,90.23
2017-06-11T04:18:15.115Z,89.94
2017-06-11T04:18:43.401Z,90.37
2017-06-11T04:19:11.691Z,90.08
2017-06-11T04:19:39.940Z,90.37
2017-06-11T04:20:08.037Z,90.37
2017-06-11T04:20:36.281Z,90.18
2017-06-11T04:21:04.436Z,90.08
2017-06-11T04:21:32.647Z,89.89
2017-06-11T04:22:00.861Z,89.89
2017-06-11T04:22:29.117Z,89.89
2017-06-11T04:22:57.351Z,89.7
2017-06-11T04:23:25.382Z,89.42
2017-06-11T04:23:53.720Z,89.7
2017-06-11T04:24:21.965Z,89.89
2017-06-11T04:24:50.402Z,89.8
2017-06-11T04:25:18.582Z,89.8
2017-06-11T04:25:46.813Z,90.04
2017-06-11T04:26:14.975Z,89.8
2017-06-11T04:26:43.100Z,89.75
2017-06-11T04:27:11.218Z,89.85
2017-06-11T04:27:39.362Z,90.52
2017-06-11T04:28:07.583Z,90.28
2017-06-11T04:28:35.845Z,89.94
2017-06-11T04:29:04.070Z,90.33
2017-06-11T04:29:32.202Z,90.33
2017-06-11T04:30:00.480Z,90.33
2017-06-11T04:30:28.585Z,90.56
2017-06-11T04:30:56.824Z,90.52
2017-06-11T04:31:24.996Z,90.52
2017-06-11T04:31:53.212Z,90.42
2017-06-11T04:32:21.415Z,90.8
2017-06-11T04:32:49.472Z,90.42
2017-06-11T04:33:17.652Z,90.42
2017-06-11T04:33:45.914Z,90.33
2017-06-11T04:34:14.124Z,90.23
2017-06-11T04:34:41.981Z,90.52
2017-06-11T04:35:10.468Z,90.7
2017-06-11T04:35:38.698Z,90.61
2017-06-11T04:36:06.693Z,90.7
2017-06-11T04:36:34.950Z,90.61
2017-06-11T04:37:03.002Z,90.89
2017-06-11T04:37:31.192Z,90.89
2017-06-11T04:37:59.371Z,90.89
2017-06-11T04:38:27.618Z,91.08
2017-06-11T04:38:55.896Z,90.89
2017-06-11T04:39:24.062Z,91.56
2017-06-11T04:39:52.220Z,91.37
2017-06-11T04:40:20.400Z,91.28
2017-06-11T04:40:48.555Z,91.28
2017-06-11T04:41:16.655Z,91.28
2017-06-11T04:41:44.871Z,91.94
2017-06-11T04:42:13.014Z,91.94
2017-06-11T04:42:41.168Z,91.75
2017-06-11T04:43:09.353Z,92.03
2017-06-11T04:43:37.474Z,92.13
2017-06-11T04:44:05.634Z,92.7
2017-06-11T04:44:34.462Z,92.03
2017-06-11T04:45:02.836Z,91.94
2017-06-11T04:45:31.086Z,92.22
2017-06-11T04:45:59.047Z,92.13
2017-06-11T04:46:27.212Z,91.89
2017-06-11T04:46:55.403Z,92.41
2017-06-11T04:47:23.642Z,91.99
2017-06-11T04:47:51.749Z,92.37
2017-06-11T04:48:19.932Z,92.46
2017-06-11T04:48:48.122Z,92.18
2017-06-11T04:49:16.191Z,92.32
2017-06-11T04:49:44.476Z,92.27
2017-06-11T04:50:13.047Z,92.61
2017-06-11T04:50:41.272Z,92.61
2017-06-11T04:51:09.545Z,91.94
2017-06-11T04:51:37.674Z,92.61
2017-06-11T04:52:05.822Z,92.32
2017-06-11T04:52:34.070Z,92.41
2017-06-11T04:53:02.127Z,92.46
2017-06-11T04:53:30.301Z,92.41
2017-06-11T04:53:58.379Z,92.41
2017-06-11T04:54:26.662Z,92.32
2017-06-11T04:54:55.173Z,92.8
2017-06-11T04:55:23.688Z,92.03
2017-06-11T04:55:51.723Z,92.61
2017-06-11T04:56:20.027Z,91.66
2017-06-11T04:56:48.235Z,91.75
2017-06-11T04:57:16.381Z,91.94
2017-06-11T04:57:44.606Z,91.94
2017-06-11T04:58:12.776Z,91.94
2017-06-11T04:58:40.871Z,91.94
2017-06-11T04:59:09.133Z,92.03
2017-06-11T04:59:37.171Z,91.75
2017-06-11T05:00:05.313Z,91.75
2017-06-11T05:00:33.454Z,91.94
2017-06-11T05:01:01.669Z,91.75
2017-06-11T05:01:29.827Z,92.03
2017-06-11T05:01:58.028Z,91.94
2017-06-11T05:02:26.226Z,92.51
2017-06-11T05:02:54.432Z,92.51
2017-06-11T05:03:22.577Z,92.41
2017-06-11T05:03:50.837Z,92.7
2017-06-11T05:04:18.885Z,92.7
2017-06-11T05:04:47.149Z,92.32
2017-06-11T05:05:15.683Z,92.32
2017-06-11T05:05:43.849Z,92.03
2017-06-11T05:06:11.858Z,92.32
2017-06-11T05:06:39.909Z,92.32
2017-06-11T05:07:08.144Z,92.32
2017-06-11T05:07:36.390Z,92.32
2017-06-11T05:08:04.605Z,92.03
2017-06-11T05:08:32.813Z,92.22
2017-06-11T05:09:00.978Z,92.41
2017-06-11T05:09:29.081Z,92.13
2017-06-11T05:09:57.253Z,92.51
2017-06-11T05:10:25.689Z,92.22
2017-06-11T05:10:53.951Z,92.32
2017-06-11T05:11:22.051Z,92.32
2017-06-11T05:11:50.252Z,92.51
2017-06-11T05:12:18.476Z,92.51
2017-06-11T05:12:46.660Z,92.03
2017-06-11T05:13:14.766Z,92.32
2017-06-11T05:13:43.011Z,92.32
2017-06-11T05:14:11.151Z,92.22
2017-06-11T05:14:39.431Z,92.03
2017-06-11T05:15:07.697Z,91.94
2017-06-11T05:15:35.871Z,92.7
2017-06-11T05:16:04.054Z,92.41
2017-06-11T05:16:32.249Z,92.51
2017-06-11T05:17:00.532Z,92.8
2017-06-11T05:17:28.726Z,92.41
2017-06-11T05:17:56.879Z,92.41
2017-06-11T05:18:25.039Z,92.41
2017-06-11T05:18:53.184Z,92.41
2017-06-11T05:19:21.258Z,92.8
2017-06-11T05:19:49.437Z,92.89
2017-06-11T05:20:17.649Z,92.75
2017-06-11T05:20:45.879Z,92.8
2017-06-11T05:21:14.057Z,93.08
2017-06-11T05:21:42.189Z,92.75
2017-06-11T05:22:10.424Z,92.99
2017-06-11T05:22:38.678Z,93.08
2017-06-11T05:23:06.811Z,93.18
2017-06-11T05:23:34.967Z,92.8
2017-06-11T05:24:03.091Z,92.89
2017-06-11T05:24:31.244Z,92.7
2017-06-11T05:24:59.475Z,92.89
2017-06-11T05:25:27.515Z,92.51
2017-06-11T05:25:56.024Z,92.22
2017-06-11T05:26:24.215Z,92.13
2017-06-11T05:26:52.497Z,92.41
2017-06-11T05:27:20.694Z,92.32
2017-06-11T05:27:48.911Z,92.7
2017-06-11T05:28:17.101Z,92.03
2017-06-11T05:28:45.226Z,92.03
2017-06-11T05:29:13.376Z,91.52
2017-06-11T05:29:41.487Z,91.52
2017-06-11T05:30:09.581Z,91.61
2017-06-11T05:30:37.832Z,91.99
2017-06-11T05:31:06.114Z,91.61
2017-06-11T05:31:34.359Z,92.18
2017-06-11T05:32:02.488Z,92.46
2017-06-11T05:32:30.450Z,92.27
2017-06-11T05:32:58.604Z,92.66
2017-06-11T05:33:26.462Z,93.04
2017-06-11T05:33:54.731Z,93.04
2017-06-11T05:34:23.007Z,92.94
2017-06-11T05:34:51.219Z,93.13
2017-06-11T05:35:19.473Z,93.41
2017-06-11T05:35:47.878Z,93.7
2017-06-11T05:36:16.258Z,93.7
2017-06-11T05:36:44.477Z,93.99
2017-06-11T05:37:12.720Z,93.99
2017-06-11T05:37:40.971Z,94.56
2017-06-11T05:38:08.816Z,94.74
2017-06-11T05:38:37.023Z,94.56
2017-06-11T05:39:05.197Z,94.65
2017-06-11T05:39:33.407Z,94.84
2017-06-11T05:40:01.546Z,95.03
2017-06-11T05:40:29.581Z,94.65
2017-06-11T05:40:57.874Z,94.56
2017-06-11T05:41:25.850Z,95.41
2017-06-11T05:41:54.118Z,95.32
2017-06-11T05:42:22.154Z,95.41
2017-06-11T05:42:50.442Z,95.03
2017-06-11T05:43:18.597Z,94.84
2017-06-11T05:43:46.772Z,94.84
2017-06-11T05:44:14.946Z,94.84
2017-06-11T05:44:43.159Z,95.22
2017-06-11T05:45:11.296Z,94.93
2017-06-11T05:45:39.356Z,95.41
2017-06-11T05:46:07.744Z,95.03
2017-06-11T05:46:36.043Z,95.36
2017-06-11T05:47:04.271Z,95.98
2017-06-11T05:47:32.447Z,95.79
2017-06-11T05:48:00.522Z,95.55
2017-06-11T05:48:28.686Z,95.51
2017-06-11T05:48:56.927Z,95.65
2017-06-11T05:49:25.158Z,96.12
2017-06-11T05:49:53.269Z,96.08
2017-06-11T05:50:21.479Z,95.84
2017-06-11T05:50:49.627Z,95.94
2017-06-11T05:51:17.834Z,95.94
2017-06-11T05:51:45.993Z,95.94
2017-06-11T05:52:14.124Z,96.6
2017-06-11T05:52:42.279Z,96.5
2017-06-11T05:53:10.533Z,96.5
2017-06-11T05:53:38.694Z,97.17
2017-06-11T05:54:06.975Z,96.79
2017-06-11T05:54:35.072Z,97.07
2017-06-11T05:55:03.291Z,96.98
2017-06-11T05:55:31.427Z,96.98
2017-06-11T05:55:59.619Z,96.6
2017-06-11T05:56:27.956Z,96.69
2017-06-11T05:56:56.466Z,96.98
2017-06-11T05:57:24.530Z,96.69
2017-06-11T05:57:52.685Z,97.07
2017-06-11T05:58:20.724Z,97.27
2017-06-11T05:58:48.795Z,96.93
2017-06-11T05:59:17.086Z,97.88
2017-06-11T05:59:45.269Z,97.6
2017-06-11T06:00:13.539Z,97.6
2017-06-11T06:00:41.467Z,97.69
2017-06-11T06:01:09.671Z,97.88
2017-06-11T06:01:37.906Z,97.12
2017-06-11T06:02:06.022Z,97.12
2017-06-11T06:02:34.194Z,97.31
2017-06-11T06:03:02.372Z,97.22
2017-06-11T06:03:30.442Z,96.74
2017-06-11T06:03:58.623Z,97.03
2017-06-11T06:04:26.789Z,96.55